Time;durP1;ratioP1;P1;durP2;ratioP2;P2;SDS_P1;SDS_P2;PMS_P1;PMS_P2;Temp;Humidity;BMP_temperature;BMP_pressure;BME280_temperature;BME280_humidity;BME280_pressure;Samples;Min_cycle;Max_cycle;Signal;HPM_P1;HPM_P2
2023/10/15 00:00:39;;;;;;;6.40;3.80;;;;;;;;;;5127441;27;20465;-76
2023/10/15 00:03:07;;;;;;;9.13;3.30;;;;;;;;;;5128641;27;20802;-76
2023/10/15 00:05:35;;;;;;;7.43;4.03;;;;;;;;;;5132008;27;20458;-76
2023/10/15 00:08:02;;;;;;;11.50;4.90;;;;;;;;;;5123924;27;20511;-76
2023/10/15 00:10:31;;;;;;;4.33;3.17;;;;;;;;;;5134339;27;20461;-76
2023/10/15 00:12:59;;;;;;;7.37;4.40;;;;;;;;;;5127526;27;20448;-76
2023/10/15 00:15:28;;;;;;;12.20;3.20;;;;;;;;;;5135751;27;20499;-76
2023/10/15 00:17:58;;;;;;;8.43;3.30;;;;;;;;;;5126898;27;20965;-76
2023/10/15 00:20:28;;;;;;;7.23;3.10;;;;;;;;;;5108467;27;20552;-76
2023/10/15 00:22:55;;;;;;;3.40;2.50;;;;;;;;;;5135912;27;20934;-76
2023/10/15 00:25:23;;;;;;;6.00;2.93;;;;;;;;;;5127148;27;20458;-76
2023/10/15 00:27:54;;;;;;;3.17;2.60;;;;;;;;;;5135284;27;21017;-76
2023/10/15 00:30:21;;;;;;;6.27;2.43;;;;;;;;;;5126604;27;20942;-76
2023/10/15 00:32:52;;;;;;;7.33;3.13;;;;;;;;;;5135475;27;20453;-76
2023/10/15 00:35:20;;;;;;;4.90;2.90;;;;;;;;;;5126901;27;20506;-76
2023/10/15 00:37:54;;;;;;;5.90;3.17;;;;;;;;;;5130999;27;20442;-76
2023/10/15 00:40:21;;;;;;;3.90;2.50;;;;;;;;;;5124252;27;20510;-76
2023/10/15 00:42:49;;;;;;;6.23;3.93;;;;;;;;;;5130343;27;20453;-76
2023/10/15 00:45:18;;;;;;;5.17;3.20;;;;;;;;;;5132306;27;20513;-77
2023/10/15 00:47:51;;;;;;;10.67;3.20;;;;;;;;;;5130636;27;20485;-76
2023/10/15 00:50:19;;;;;;;3.40;2.33;;;;;;;;;;5132183;27;20457;-77
2023/10/15 00:52:48;;;;;;;4.03;2.17;;;;;;;;;;5130812;27;20450;-76
2023/10/15 00:55:20;;;;;;;8.10;3.53;;;;;;;;;;5131688;27;20456;-76
2023/10/15 00:57:47;;;;;;;5.63;3.10;;;;;;;;;;5108357;27;20456;-76
2023/10/15 01:03:04;;;;;;;4.80;2.70;;;;;;;;;;5135065;27;20437;-76
2023/10/15 01:05:44;;;;;;;2.77;2.47;;;;;;;;;;5134706;27;20603;-76
2023/10/15 01:08:16;;;;;;;4.20;2.43;;;;;;;;;;5126223;27;20488;-76
2023/10/15 01:10:44;;;;;;;6.80;2.90;;;;;;;;;;5121978;27;20481;-76
2023/10/15 01:13:21;;;;;;;7.90;3.20;;;;;;;;;;5122497;27;20492;-76
2023/10/15 01:15:53;;;;;;;3.63;2.63;;;;;;;;;;5127827;27;20448;-76
2023/10/15 01:18:22;;;;;;;6.87;3.17;;;;;;;;;;5126069;27;20521;-76
2023/10/15 01:20:49;;;;;;;9.47;3.67;;;;;;;;;;5134505;27;20550;-76
2023/10/15 01:23:28;;;;;;;4.13;2.67;;;;;;;;;;5134451;27;20884;-76
2023/10/15 01:25:57;;;;;;;5.83;3.77;;;;;;;;;;5126255;27;20452;-76
2023/10/15 01:28:36;;;;;;;5.80;3.27;;;;;;;;;;5134235;27;21096;-76
2023/10/15 01:31:05;;;;;;;7.60;3.67;;;;;;;;;;5124882;27;20925;-77
2023/10/15 01:33:36;;;;;;;7.97;4.13;;;;;;;;;;5134199;27;20543;-76
2023/10/15 01:36:06;;;;;;;9.63;3.77;;;;;;;;;;5134575;27;20464;-76
2023/10/15 01:38:34;;;;;;;8.47;4.37;;;;;;;;;;5134043;27;20455;-77
2023/10/15 01:41:06;;;;;;;5.17;3.80;;;;;;;;;;5125748;27;20468;-76
2023/10/15 01:43:35;;;;;;;5.63;4.10;;;;;;;;;;5134118;27;20892;-76
2023/10/15 01:46:10;;;;;;;11.83;5.97;;;;;;;;;;5134486;27;20445;-76
2023/10/15 01:48:41;;;;;;;8.07;4.37;;;;;;;;;;5134081;27;20491;-76
2023/10/15 01:51:09;;;;;;;5.80;4.83;;;;;;;;;;5125824;27;20525;-77
2023/10/15 01:53:37;;;;;;;7.20;5.00;;;;;;;;;;5125530;27;20455;-76
2023/10/15 01:56:18;;;;;;;10.60;5.33;;;;;;;;;;5125773;27;20459;-76
2023/10/15 01:58:45;;;;;;;7.40;5.07;;;;;;;;;;5121757;27;20537;-76
2023/10/15 02:01:21;;;;;;;7.10;5.00;;;;;;;;;;5130083;27;20521;-76
2023/10/15 02:03:48;;;;;;;7.13;6.17;;;;;;;;;;5126843;27;20459;-76
2023/10/15 02:06:19;;;;;;;10.60;5.47;;;;;;;;;;5133376;27;20501;-76
2023/10/15 02:08:47;;;;;;;9.87;5.70;;;;;;;;;;5126588;27;20492;-76
2023/10/15 02:11:22;;;;;;;7.07;6.37;;;;;;;;;;5125195;27;20472;-77
2023/10/15 02:13:49;;;;;;;17.33;6.00;;;;;;;;;;5129147;28;20457;-75
2023/10/15 02:16:25;;;;;;;10.80;5.70;;;;;;;;;;5130248;28;20457;-75
2023/10/15 02:18:52;;;;;;;6.87;3.40;;;;;;;;;;5127077;28;20462;-76
2023/10/15 02:21:19;;;;;;;7.63;4.17;;;;;;;;;;5125002;28;20840;-76
2023/10/15 02:23:51;;;;;;;12.47;3.97;;;;;;;;;;5129146;28;20468;-76
2023/10/15 02:26:23;;;;;;;6.70;3.90;;;;;;;;;;5130597;28;20453;-75
2023/10/15 02:28:53;;;;;;;5.60;3.47;;;;;;;;;;5115180;28;20484;-76
2023/10/15 02:31:22;;;;;;;4.70;3.47;;;;;;;;;;5124998;28;20554;-76
2023/10/15 02:33:49;;;;;;;7.87;3.20;;;;;;;;;;5133931;28;20933;-76
2023/10/15 02:36:17;;;;;;;8.60;3.30;;;;;;;;;;5124953;28;20458;-77
2023/10/15 02:38:53;;;;;;;7.80;2.70;;;;;;;;;;5129136;28;20449;-76
2023/10/15 02:41:25;;;;;;;9.63;2.60;;;;;;;;;;5122714;27;20845;-76
2023/10/15 02:43:55;;;;;;;4.93;2.50;;;;;;;;;;5138259;27;20831;-76
2023/10/15 02:46:36;;;;;;;5.60;1.90;;;;;;;;;;5129353;27;20478;-76
2023/10/15 02:49:07;;;;;;;5.73;2.50;;;;;;;;;;5137714;27;20436;-76
2023/10/15 02:51:35;;;;;;;4.30;2.30;;;;;;;;;;5137669;27;20564;-76
2023/10/15 02:54:03;;;;;;;4.30;2.50;;;;;;;;;;5137876;27;20446;-76
2023/10/15 02:56:32;;;;;;;10.07;3.17;;;;;;;;;;5128922;27;20473;-76
2023/10/15 02:58:59;;;;;;;7.13;3.13;;;;;;;;;;5137242;27;20444;-76
2023/10/15 03:01:26;;;;;;;7.73;2.93;;;;;;;;;;5135397;27;20990;-76
2023/10/15 03:03:55;;;;;;;4.43;2.47;;;;;;;;;;5130912;27;20501;-76
2023/10/15 03:06:28;;;;;;;4.17;2.13;;;;;;;;;;5128630;27;20501;-75
2023/10/15 03:08:56;;;;;;;4.73;2.53;;;;;;;;;;5128621;27;20520;-76
2023/10/15 03:11:24;;;;;;;10.87;2.67;;;;;;;;;;5137008;27;20982;-76
2023/10/15 03:13:54;;;;;;;11.33;3.30;;;;;;;;;;5136573;27;20551;-76
2023/10/15 03:16:22;;;;;;;5.40;2.63;;;;;;;;;;5136204;27;20441;-76
2023/10/15 03:18:49;;;;;;;3.50;3.17;;;;;;;;;;5129838;27;20846;-76
2023/10/15 03:21:20;;;;;;;6.47;3.10;;;;;;;;;;5128196;27;20479;-76
2023/10/15 03:23:50;;;;;;;5.40;2.67;;;;;;;;;;5128504;27;20830;-76
2023/10/15 03:26:21;;;;;;;5.40;2.73;;;;;;;;;;5136451;27;20630;-76
2023/10/15 03:28:51;;;;;;;7.10;2.77;;;;;;;;;;5129583;27;21017;-76
2023/10/15 03:31:23;;;;;;;5.80;4.10;;;;;;;;;;5135989;27;20565;-76
2023/10/15 03:34:16;;;;;;;6.80;2.67;;;;;;;;;;5130244;27;20449;-76
2023/10/15 03:36:46;;;;;;;4.80;3.60;;;;;;;;;;5124854;27;20924;-76
2023/10/15 03:39:15;;;;;;;9.27;3.60;;;;;;;;;;5132317;27;20464;-76
2023/10/15 03:41:49;;;;;;;5.43;2.93;;;;;;;;;;5136683;27;20484;-75
2023/10/15 03:44:23;;;;;;;3.43;1.97;;;;;;;;;;5127922;27;20448;-77
2023/10/15 03:46:53;;;;;;;10.33;2.70;;;;;;;;;;5129605;27;20467;-75
2023/10/15 03:49:27;;;;;;;5.77;3.10;;;;;;;;;;5136339;27;20935;-76
2023/10/15 03:51:54;;;;;;;8.07;5.10;;;;;;;;;;5136201;27;20515;-76
2023/10/15 03:54:23;;;;;;;6.17;2.80;;;;;;;;;;5126742;27;20472;-76
2023/10/15 03:56:51;;;;;;;3.67;2.17;;;;;;;;;;5131215;27;20454;-75
2023/10/15 03:59:19;;;;;;;5.10;2.47;;;;;;;;;;5114690;27;20801;-76
2023/10/15 04:01:50;;;;;;;7.37;2.93;;;;;;;;;;5127687;27;20530;-76
2023/10/15 04:04:20;;;;;;;3.63;2.50;;;;;;;;;;5136078;27;20482;-76
2023/10/15 04:06:52;;;;;;;6.57;2.27;;;;;;;;;;5136221;27;20445;-75
2023/10/15 04:09:23;;;;;;;6.40;2.60;;;;;;;;;;5126274;27;20567;-76
2023/10/15 04:11:52;;;;;;;7.47;3.23;;;;;;;;;;5123886;27;20987;-75
2023/10/15 04:14:26;;;;;;;4.83;2.77;;;;;;;;;;5132973;27;20500;-75
2023/10/15 04:16:57;;;;;;;10.20;2.97;;;;;;;;;;5130227;27;20466;-75
2023/10/15 04:19:29;;;;;;;5.30;2.67;;;;;;;;;;5133441;27;20456;-76
2023/10/15 04:22:03;;;;;;;4.90;2.57;;;;;;;;;;5127189;27;20529;-75
2023/10/15 04:24:37;;;;;;;7.50;2.83;;;;;;;;;;5136041;27;20536;-76
2023/10/15 04:27:07;;;;;;;5.03;2.20;;;;;;;;;;5135606;27;20457;-76
2023/10/15 04:29:43;;;;;;;7.60;2.83;;;;;;;;;;5132266;27;20460;-76
2023/10/15 04:32:12;;;;;;;5.70;3.37;;;;;;;;;;5131376;27;20457;-75
2023/10/15 04:34:40;;;;;;;4.30;2.67;;;;;;;;;;5126865;27;20449;-76
2023/10/15 04:37:10;;;;;;;3.00;2.30;;;;;;;;;;5135596;27;20452;-76
2023/10/15 04:39:48;;;;;;;5.40;2.70;;;;;;;;;;5126629;27;20829;-76
2023/10/15 04:42:21;;;;;;;3.73;2.33;;;;;;;;;;5126727;27;20461;-76
2023/10/15 04:44:49;;;;;;;3.30;2.23;;;;;;;;;;5135301;27;20452;-76
2023/10/15 04:47:25;;;;;;;5.40;2.37;;;;;;;;;;5126494;27;20876;-76
2023/10/15 04:49:57;;;;;;;3.93;2.20;;;;;;;;;;5135088;27;20955;-76
2023/10/15 04:52:24;;;;;;;6.63;2.57;;;;;;;;;;5126441;27;20514;-76
2023/10/15 04:54:55;;;;;;;7.67;2.90;;;;;;;;;;5126575;27;20497;-75
2023/10/15 04:57:22;;;;;;;7.10;2.30;;;;;;;;;;5134071;27;21014;-76
2023/10/15 04:59:49;;;;;;;4.27;2.50;;;;;;;;;;5127180;27;20830;-76
2023/10/15 05:02:18;;;;;;;3.63;2.10;;;;;;;;;;5134589;27;20475;-76
2023/10/15 05:04:45;;;;;;;8.90;2.63;;;;;;;;;;5126200;27;20452;-75
2023/10/15 05:07:15;;;;;;;4.43;2.90;;;;;;;;;;5116466;27;20444;-75
2023/10/15 05:09:44;;;;;;;3.27;2.10;;;;;;;;;;5134773;27;20524;-75
2023/10/15 05:12:12;;;;;;;11.67;2.27;;;;;;;;;;5134700;27;20501;-75
2023/10/15 05:14:39;;;;;;;8.27;4.23;;;;;;;;;;5134546;27;20463;-76
2023/10/15 05:17:06;;;;;;;3.10;2.10;;;;;;;;;;5126152;27;20444;-76
2023/10/15 05:19:33;;;;;;;5.83;2.27;;;;;;;;;;5131214;27;20447;-76
2023/10/15 05:22:02;;;;;;;3.23;2.13;;;;;;;;;;5128856;27;20473;-75
2023/10/15 05:24:30;;;;;;;7.90;2.53;;;;;;;;;;5126217;27;20445;-76
2023/10/15 05:26:57;;;;;;;6.40;2.57;;;;;;;;;;5125933;27;20801;-76
2023/10/15 05:29:26;;;;;;;7.90;2.33;;;;;;;;;;5105529;27;20851;-76
2023/10/15 05:31:53;;;;;;;3.10;1.90;;;;;;;;;;5122235;27;20564;-75
2023/10/15 05:34:20;;;;;;;4.63;2.67;;;;;;;;;;5130914;27;20457;-76
2023/10/15 05:36:48;;;;;;;6.77;3.47;;;;;;;;;;5121360;27;20521;-76
2023/10/15 05:39:16;;;;;;;3.50;2.43;;;;;;;;;;5121352;27;20763;-76
2023/10/15 05:41:45;;;;;;;3.97;2.17;;;;;;;;;;5124799;27;20483;-74
2023/10/15 05:44:12;;;;;;;3.33;1.83;;;;;;;;;;5124735;27;20540;-74
2023/10/15 05:46:39;;;;;;;5.93;2.60;;;;;;;;;;5125006;27;20516;-74
2023/10/15 05:49:07;;;;;;;3.13;2.30;;;;;;;;;;5125978;27;20496;-74
2023/10/15 05:51:34;;;;;;;3.17;2.27;;;;;;;;;;5123865;27;20492;-74
2023/10/15 05:54:02;;;;;;;6.37;2.73;;;;;;;;;;5126596;27;20449;-75
2023/10/15 05:56:29;;;;;;;9.93;2.63;;;;;;;;;;5131515;27;20456;-75
2023/10/15 05:58:58;;;;;;;5.90;2.50;;;;;;;;;;5127502;27;20453;-74
2023/10/15 06:01:25;;;;;;;4.47;2.60;;;;;;;;;;5130919;27;20473;-75
2023/10/15 06:03:52;;;;;;;14.60;2.97;;;;;;;;;;5131868;27;20825;-75
2023/10/15 06:06:21;;;;;;;5.47;2.40;;;;;;;;;;5123652;27;20540;-75
2023/10/15 06:08:49;;;;;;;8.33;3.10;;;;;;;;;;5124967;27;21008;-74
2023/10/15 06:11:18;;;;;;;7.70;4.00;;;;;;;;;;5124421;27;20479;-75
2023/10/15 06:13:45;;;;;;;6.70;3.20;;;;;;;;;;5130652;28;20453;-74
2023/10/15 06:16:14;;;;;;;6.13;2.80;;;;;;;;;;5129124;27;20924;-75
2023/10/15 06:18:41;;;;;;;7.47;2.53;;;;;;;;;;5132338;28;20469;-74
2023/10/15 06:21:09;;;;;;;6.53;2.60;;;;;;;;;;5132158;28;20461;-76
2023/10/15 06:23:36;;;;;;;4.40;2.00;;;;;;;;;;5132033;28;20531;-75
2023/10/15 06:26:03;;;;;;;6.23;3.10;;;;;;;;;;5129469;28;20441;-75
2023/10/15 06:28:31;;;;;;;4.67;3.77;;;;;;;;;;5130447;28;20497;-75
2023/10/15 06:30:58;;;;;;;13.67;2.60;;;;;;;;;;5122714;28;20631;-75
2023/10/15 06:33:27;;;;;;;6.37;2.70;;;;;;;;;;5132511;28;20443;-75
2023/10/15 06:35:54;;;;;;;9.80;2.20;;;;;;;;;;5132809;28;20455;-75
2023/10/15 06:38:21;;;;;;;11.80;2.57;;;;;;;;;;5131602;28;20544;-75
2023/10/15 06:40:48;;;;;;;10.53;2.43;;;;;;;;;;5129517;28;20457;-75
2023/10/15 06:43:16;;;;;;;8.80;2.60;;;;;;;;;;5125026;28;20452;-75
2023/10/15 06:45:43;;;;;;;7.63;2.37;;;;;;;;;;5132880;28;20449;-74
2023/10/15 06:48:11;;;;;;;3.20;1.63;;;;;;;;;;5124828;28;20453;-75
2023/10/15 06:50:41;;;;;;;9.77;2.60;;;;;;;;;;5132374;28;20469;-74
2023/10/15 06:53:08;;;;;;;6.07;2.70;;;;;;;;;;5124142;28;20543;-74
2023/10/15 06:55:35;;;;;;;6.47;2.90;;;;;;;;;;5132462;28;20487;-74
2023/10/15 06:58:02;;;;;;;5.03;2.73;;;;;;;;;;5124127;28;20448;-75
2023/10/15 07:00:36;;;;;;;4.93;2.43;;;;;;;;;;5123811;28;20454;-75
2023/10/15 07:03:04;;;;;;;5.53;2.40;;;;;;;;;;5107064;28;20496;-75
2023/10/15 07:05:31;;;;;;;7.77;2.30;;;;;;;;;;5130943;28;20468;-75
2023/10/15 07:08:00;;;;;;;5.30;1.57;;;;;;;;;;5123862;28;20466;-74
2023/10/15 07:10:27;;;;;;;7.83;2.30;;;;;;;;;;5131787;28;20456;-75
2023/10/15 07:12:56;;;;;;;3.93;1.87;;;;;;;;;;5126900;28;20457;-74
2023/10/15 07:15:23;;;;;;;8.70;2.70;;;;;;;;;;5129878;28;20453;-74
2023/10/15 07:17:53;;;;;;;6.53;3.30;;;;;;;;;;5132559;28;20474;-74
2023/10/15 07:20:21;;;;;;;6.20;4.23;;;;;;;;;;5123557;28;20948;-74
2023/10/15 07:22:50;;;;;;;3.70;1.97;;;;;;;;;;5132160;28;20464;-74
2023/10/15 07:25:20;;;;;;;6.60;2.80;;;;;;;;;;5123813;28;20450;-75
2023/10/15 07:27:48;;;;;;;5.47;2.50;;;;;;;;;;5132431;27;20445;-75
2023/10/15 07:30:16;;;;;;;5.67;2.20;;;;;;;;;;5126484;27;20493;-76
2023/10/15 07:32:44;;;;;;;4.07;1.93;;;;;;;;;;5127640;27;20472;-75
2023/10/15 07:35:12;;;;;;;7.13;4.27;;;;;;;;;;5128699;27;20831;-75
2023/10/15 07:37:41;;;;;;;4.30;2.27;;;;;;;;;;5132515;27;20445;-75
2023/10/15 07:40:14;;;;;;;3.60;2.10;;;;;;;;;;5131195;27;20464;-75
2023/10/15 07:42:43;;;;;;;5.83;2.07;;;;;;;;;;5123851;27;20445;-74
2023/10/15 07:45:10;;;;;;;5.70;2.10;;;;;;;;;;5123750;27;20446;-75
2023/10/15 07:47:39;;;;;;;8.90;3.90;;;;;;;;;;5132227;27;20457;-76
2023/10/15 07:50:07;;;;;;;5.90;4.00;;;;;;;;;;5130634;27;20571;-76
2023/10/15 07:52:34;;;;;;;4.00;3.03;;;;;;;;;;5132810;27;20547;-76
2023/10/15 07:55:01;;;;;;;6.30;2.50;;;;;;;;;;5128612;27;20449;-76
2023/10/15 07:57:28;;;;;;;5.53;1.80;;;;;;;;;;5126976;27;20469;-76
2023/10/15 07:59:58;;;;;;;4.03;1.70;;;;;;;;;;5129607;27;20449;-76
2023/10/15 08:02:27;;;;;;;8.73;2.63;;;;;;;;;;5127645;27;20468;-76
2023/10/15 08:04:55;;;;;;;3.70;2.03;;;;;;;;;;5125794;27;20452;-76
2023/10/15 08:07:22;;;;;;;8.93;2.60;;;;;;;;;;5124109;27;20457;-76
2023/10/15 08:09:50;;;;;;;4.30;2.23;;;;;;;;;;5129702;27;20492;-77
2023/10/15 08:12:20;;;;;;;4.07;2.93;;;;;;;;;;5130260;27;20476;-77
2023/10/15 08:14:47;;;;;;;10.17;2.40;;;;;;;;;;5126849;27;20448;-76
2023/10/15 08:17:16;;;;;;;3.90;2.53;;;;;;;;;;5115126;27;20457;-76
2023/10/15 08:19:44;;;;;;;5.67;2.70;;;;;;;;;;5124752;27;20469;-76
2023/10/15 08:22:12;;;;;;;6.13;2.77;;;;;;;;;;5125373;27;20464;-77
2023/10/15 08:24:39;;;;;;;3.97;2.50;;;;;;;;;;5133796;27;20460;-77
2023/10/15 08:27:07;;;;;;;4.93;1.97;;;;;;;;;;5134184;27;20457;-77
2023/10/15 08:29:34;;;;;;;8.20;3.70;;;;;;;;;;5124812;27;20907;-74
2023/10/15 08:32:02;;;;;;;2.97;1.90;;;;;;;;;;5133782;27;20479;-76
2023/10/15 08:34:30;;;;;;;5.93;2.17;;;;;;;;;;5124948;27;20450;-76
2023/10/15 08:36:57;;;;;;;2.87;1.90;;;;;;;;;;5125485;27;20839;-77
2023/10/15 08:39:27;;;;;;;8.30;2.80;;;;;;;;;;5122766;27;20936;-77
2023/10/15 08:41:55;;;;;;;7.00;2.50;;;;;;;;;;5121877;27;20473;-76
2023/10/15 08:44:22;;;;;;;5.80;4.73;;;;;;;;;;5122365;27;20445;-76
2023/10/15 08:46:53;;;;;;;4.33;2.90;;;;;;;;;;5125088;27;20770;-76
2023/10/15 08:49:21;;;;;;;5.57;2.90;;;;;;;;;;5124549;27;20480;-77
2023/10/15 08:51:50;;;;;;;4.10;2.40;;;;;;;;;;5125194;27;20559;-76
2023/10/15 08:54:25;;;;;;;3.00;2.20;;;;;;;;;;5133362;27;20467;-76
2023/10/15 08:56:54;;;;;;;9.40;3.03;;;;;;;;;;5128211;27;20449;-77
2023/10/15 08:59:21;;;;;;;6.30;2.40;;;;;;;;;;5129168;27;20509;-76
2023/10/15 09:01:49;;;;;;;5.43;2.20;;;;;;;;;;5125849;27;20484;-77
2023/10/15 09:04:17;;;;;;;6.00;2.47;;;;;;;;;;5124504;27;20457;-77
2023/10/15 09:06:47;;;;;;;5.10;1.90;;;;;;;;;;5129248;27;20445;-76
2023/10/15 09:09:17;;;;;;;4.30;2.10;;;;;;;;;;5130048;27;20492;-76
2023/10/15 09:11:44;;;;;;;7.10;2.40;;;;;;;;;;5124469;27;20489;-76
2023/10/15 09:14:13;;;;;;;7.83;2.40;;;;;;;;;;5131459;27;20448;-77
2023/10/15 09:16:47;;;;;;;9.43;2.53;;;;;;;;;;5129136;27;20827;-77
2023/10/15 09:19:14;;;;;;;4.60;2.27;;;;;;;;;;5112548;27;20448;-77
2023/10/15 09:21:41;;;;;;;3.93;2.40;;;;;;;;;;5125404;27;20521;-76
2023/10/15 09:24:09;;;;;;;4.90;2.07;;;;;;;;;;5125240;27;20540;-76
2023/10/15 09:26:41;;;;;;;4.30;1.97;;;;;;;;;;5124932;27;20440;-76
2023/10/15 09:29:20;;;;;;;8.03;2.80;;;;;;;;;;5124718;27;21003;-77
2023/10/15 09:31:47;;;;;;;8.90;2.00;;;;;;;;;;5126106;27;20475;-76
2023/10/15 09:34:14;;;;;;;9.53;3.13;;;;;;;;;;5125159;27;20456;-77
2023/10/15 09:36:43;;;;;;;6.50;2.00;;;;;;;;;;5121698;27;20549;-76
2023/10/15 09:39:13;;;;;;;8.53;2.57;;;;;;;;;;5121647;27;20969;-75
2023/10/15 09:41:42;;;;;;;2.47;1.90;;;;;;;;;;5121562;27;20495;-76
2023/10/15 09:44:14;;;;;;;3.07;1.80;;;;;;;;;;5121653;27;20456;-75
2023/10/15 09:46:42;;;;;;;2.50;1.50;;;;;;;;;;5121569;27;20466;-76
2023/10/15 09:49:10;;;;;;;8.53;2.13;;;;;;;;;;5121240;27;20667;-76
2023/10/15 09:51:38;;;;;;;3.60;1.90;;;;;;;;;;5129660;27;20856;-76
2023/10/15 09:54:06;;;;;;;8.27;2.27;;;;;;;;;;5128589;27;20453;-76
2023/10/15 09:56:35;;;;;;;2.60;2.03;;;;;;;;;;5124481;27;20449;-76
2023/10/15 09:59:03;;;;;;;7.03;2.97;;;;;;;;;;5126239;27;20454;-76
2023/10/15 10:01:32;;;;;;;5.53;2.50;;;;;;;;;;5131501;27;20472;-75
2023/10/15 10:04:23;;;;;;;7.13;3.40;;;;;;;;;;5127290;27;20457;-76
2023/10/15 10:07:09;;;;;;;3.73;2.10;;;;;;;;;;5121616;28;20510;-76
2023/10/15 10:09:45;;;;;;;6.43;2.97;;;;;;;;;;5124200;27;20492;-76
2023/10/15 10:12:18;;;;;;;6.80;4.20;;;;;;;;;;5124427;27;20977;-76
2023/10/15 10:14:58;;;;;;;6.43;2.50;;;;;;;;;;5132965;27;20444;-75
2023/10/15 10:17:26;;;;;;;7.00;2.50;;;;;;;;;;5122981;28;20484;-75
2023/10/15 10:19:54;;;;;;;3.40;2.00;;;;;;;;;;5126114;28;20452;-76
2023/10/15 10:22:24;;;;;;;6.03;3.27;;;;;;;;;;5131821;28;20475;-75
2023/10/15 10:24:54;;;;;;;11.97;2.73;;;;;;;;;;5126076;28;20895;-76
2023/10/15 10:27:21;;;;;;;7.00;2.80;;;;;;;;;;5124218;28;20833;-77
2023/10/15 10:29:53;;;;;;;7.83;2.70;;;;;;;;;;5127684;27;20485;-77
2023/10/15 10:32:22;;;;;;;4.90;2.53;;;;;;;;;;5129107;28;20472;-75
2023/10/15 10:35:04;;;;;;;7.53;3.27;;;;;;;;;;5125643;28;20460;-75
2023/10/15 10:37:32;;;;;;;2.40;1.80;;;;;;;;;;5132105;28;20834;-74
2023/10/15 10:40:01;;;;;;;4.73;2.47;;;;;;;;;;5132745;28;20539;-73
2023/10/15 10:42:29;;;;;;;4.80;1.90;;;;;;;;;;5132801;28;20466;-73
2023/10/15 10:44:58;;;;;;;5.20;2.53;;;;;;;;;;5124668;28;20449;-73
2023/10/15 10:47:25;;;;;;;5.73;2.70;;;;;;;;;;5124606;28;20527;-73
2023/10/15 10:49:56;;;;;;;4.87;3.40;;;;;;;;;;5132994;28;20488;-74
2023/10/15 10:52:30;;;;;;;4.23;2.83;;;;;;;;;;5132984;28;20471;-72
2023/10/15 10:54:58;;;;;;;5.33;3.53;;;;;;;;;;5133106;28;20876;-72
2023/10/15 10:57:31;;;;;;;3.83;2.07;;;;;;;;;;5132577;28;20453;-72
2023/10/15 11:00:01;;;;;;;4.10;2.20;;;;;;;;;;5132809;28;20433;-72
2023/10/15 11:02:28;;;;;;;6.77;2.10;;;;;;;;;;5133091;27;20978;-73
2023/10/15 11:04:57;;;;;;;4.47;2.10;;;;;;;;;;5131357;27;20450;-72
2023/10/15 11:07:36;;;;;;;4.10;2.70;;;;;;;;;;5134303;27;20930;-73
2023/10/15 11:10:06;;;;;;;5.73;2.33;;;;;;;;;;5135935;27;20484;-72
2023/10/15 11:12:33;;;;;;;4.87;2.93;;;;;;;;;;5136509;27;20472;-72
2023/10/15 11:15:07;;;;;;;6.73;3.27;;;;;;;;;;5136612;27;20559;-72
2023/10/15 11:17:34;;;;;;;8.67;3.33;;;;;;;;;;5127794;27;20482;-73
2023/10/15 11:20:03;;;;;;;6.40;3.30;;;;;;;;;;5117827;27;20453;-72
2023/10/15 11:22:30;;;;;;;6.40;3.10;;;;;;;;;;5136097;27;20829;-72
2023/10/15 11:24:57;;;;;;;9.27;4.47;;;;;;;;;;5121867;27;20446;-72
2023/10/15 11:27:25;;;;;;;5.40;3.63;;;;;;;;;;5133754;27;20455;-73
2023/10/15 11:29:52;;;;;;;5.03;3.63;;;;;;;;;;5135814;27;20591;-72
2023/10/15 11:32:21;;;;;;;6.00;2.97;;;;;;;;;;5135558;27;20465;-72
2023/10/15 11:34:48;;;;;;;5.33;3.03;;;;;;;;;;5128943;27;20981;-73
2023/10/15 11:37:16;;;;;;;3.97;3.30;;;;;;;;;;5136264;27;20451;-73
2023/10/15 11:39:47;;;;;;;6.70;3.30;;;;;;;;;;5127287;27;20456;-73
2023/10/15 11:42:15;;;;;;;7.60;3.93;;;;;;;;;;5135785;27;20477;-73
2023/10/15 11:44:44;;;;;;;7.50;3.10;;;;;;;;;;5132490;27;20483;-73
2023/10/15 11:47:15;;;;;;;5.23;3.90;;;;;;;;;;5124120;27;20446;-73
2023/10/15 11:49:45;;;;;;;10.00;3.87;;;;;;;;;;5127807;27;20552;-73
2023/10/15 11:52:14;;;;;;;7.70;3.10;;;;;;;;;;5135795;27;20475;-74
2023/10/15 11:54:43;;;;;;;10.03;3.90;;;;;;;;;;5115698;28;20966;-72
2023/10/15 11:57:16;;;;;;;3.87;3.10;;;;;;;;;;5124075;27;20833;-73
2023/10/15 11:59:45;;;;;;;6.60;4.50;;;;;;;;;;5123929;27;20457;-73
2023/10/15 12:02:12;;;;;;;4.27;3.10;;;;;;;;;;5123100;27;20495;-73
2023/10/15 12:04:39;;;;;;;5.50;3.30;;;;;;;;;;5127530;27;20968;-73
2023/10/15 12:07:16;;;;;;;5.47;3.70;;;;;;;;;;5135831;27;20457;-73
2023/10/15 12:09:44;;;;;;;4.00;2.30;;;;;;;;;;5135762;27;20460;-73
2023/10/15 12:12:11;;;;;;;3.97;2.47;;;;;;;;;;5127853;27;20507;-73
2023/10/15 12:14:39;;;;;;;4.13;2.40;;;;;;;;;;5134487;27;20449;-73
2023/10/15 12:17:06;;;;;;;2.80;2.10;;;;;;;;;;5135622;27;20501;-73
2023/10/15 12:19:33;;;;;;;4.37;2.87;;;;;;;;;;5135151;27;20483;-72
2023/10/15 12:22:01;;;;;;;6.83;2.40;;;;;;;;;;5134791;27;20464;-73
2023/10/15 12:24:35;;;;;;;4.20;2.90;;;;;;;;;;5126428;27;20546;-73
2023/10/15 12:27:05;;;;;;;4.17;2.33;;;;;;;;;;5135719;27;20452;-73
2023/10/15 12:29:32;;;;;;;7.17;2.13;;;;;;;;;;5135028;27;20806;-73
2023/10/15 12:31:59;;;;;;;5.03;2.97;;;;;;;;;;5126355;27;20575;-74
2023/10/15 12:34:26;;;;;;;3.73;2.53;;;;;;;;;;5126585;27;20458;-73
2023/10/15 12:36:54;;;;;;;3.77;2.30;;;;;;;;;;5135162;27;20545;-73
2023/10/15 12:39:26;;;;;;;4.57;2.60;;;;;;;;;;5135021;27;20461;-74
2023/10/15 12:41:55;;;;;;;9.17;2.80;;;;;;;;;;5129740;27;20474;-73
2023/10/15 12:44:26;;;;;;;4.97;2.53;;;;;;;;;;5132346;27;20476;-73
2023/10/15 12:46:53;;;;;;;4.67;3.63;;;;;;;;;;5126235;27;20510;-73
2023/10/15 12:49:20;;;;;;;4.03;2.97;;;;;;;;;;5133955;27;20499;-73
2023/10/15 12:51:48;;;;;;;2.80;2.30;;;;;;;;;;5122518;27;20493;-72
2023/10/15 12:54:15;;;;;;;4.50;3.53;;;;;;;;;;5131009;27;20826;-73
2023/10/15 12:56:42;;;;;;;4.40;3.27;;;;;;;;;;5117787;27;20505;-73
2023/10/15 12:59:11;;;;;;;9.27;3.50;;;;;;;;;;5133433;27;20984;-74
2023/10/15 13:01:40;;;;;;;10.77;4.37;;;;;;;;;;5134051;27;21041;-72
2023/10/15 13:04:08;;;;;;;9.10;3.70;;;;;;;;;;5126240;27;20485;-73
2023/10/15 13:06:35;;;;;;;10.43;6.50;;;;;;;;;;5125734;27;20444;-73
2023/10/15 13:09:08;;;;;;;5.83;3.67;;;;;;;;;;5127946;27;20453;-72
2023/10/15 13:11:35;;;;;;;5.63;3.60;;;;;;;;;;5130316;27;20489;-73
2023/10/15 13:14:02;;;;;;;7.80;5.23;;;;;;;;;;5128895;27;20463;-74
2023/10/15 13:16:31;;;;;;;8.73;6.50;;;;;;;;;;5117232;27;20821;-73
2023/10/15 13:18:58;;;;;;;5.80;3.97;;;;;;;;;;5134279;27;20841;-73
2023/10/15 13:21:25;;;;;;;4.07;3.67;;;;;;;;;;5125510;27;20465;-74
2023/10/15 13:23:53;;;;;;;5.73;4.20;;;;;;;;;;5133836;27;20954;-73
2023/10/15 13:26:20;;;;;;;7.87;5.10;;;;;;;;;;5133699;27;20444;-74
2023/10/15 13:28:48;;;;;;;4.03;3.73;;;;;;;;;;5134131;27;20998;-73
2023/10/15 13:31:15;;;;;;;8.43;4.00;;;;;;;;;;5125394;27;20489;-73
2023/10/15 13:33:44;;;;;;;7.63;5.33;;;;;;;;;;5134026;27;20449;-73
2023/10/15 13:36:13;;;;;;;12.73;5.67;;;;;;;;;;5117868;27;20442;-74
2023/10/15 13:38:41;;;;;;;7.17;4.97;;;;;;;;;;5125040;27;20819;-73
2023/10/15 13:41:08;;;;;;;7.67;4.63;;;;;;;;;;5135930;27;20501;-72
2023/10/15 13:43:37;;;;;;;5.13;2.73;;;;;;;;;;5125652;27;20445;-72
2023/10/15 13:46:05;;;;;;;5.40;3.83;;;;;;;;;;5115359;27;20452;-72
2023/10/15 13:48:32;;;;;;;13.00;10.33;;;;;;;;;;5124321;27;20497;-73
2023/10/15 13:51:01;;;;;;;4.20;3.80;;;;;;;;;;5128552;27;20566;-73
2023/10/15 13:53:30;;;;;;;11.33;7.20;;;;;;;;;;5128699;27;20820;-72
2023/10/15 13:56:00;;;;;;;10.83;5.60;;;;;;;;;;5137161;27;20452;-72
2023/10/15 13:58:27;;;;;;;14.27;8.37;;;;;;;;;;5132750;27;20487;-72
2023/10/15 14:00:54;;;;;;;18.03;8.67;;;;;;;;;;5126554;27;20469;-72
2023/10/15 14:03:21;;;;;;;15.43;7.80;;;;;;;;;;5114174;27;20448;-72
2023/10/15 14:05:48;;;;;;;14.20;9.30;;;;;;;;;;5125769;27;20828;-72
2023/10/15 14:08:17;;;;;;;3.63;3.33;;;;;;;;;;5124419;27;20453;-72
2023/10/15 14:10:46;;;;;;;4.07;3.67;;;;;;;;;;5124286;27;20498;-72
2023/10/15 14:13:13;;;;;;;2.30;2.10;;;;;;;;;;5125124;27;20553;-72
2023/10/15 14:15:40;;;;;;;2.90;2.17;;;;;;;;;;5130023;27;20516;-72
2023/10/15 14:18:07;;;;;;;3.67;2.63;;;;;;;;;;5121211;27;20499;-72
2023/10/15 14:20:37;;;;;;;3.97;2.77;;;;;;;;;;5131822;28;20448;-74
2023/10/15 14:23:05;;;;;;;3.30;2.60;;;;;;;;;;5126163;28;20514;-72
2023/10/15 14:25:34;;;;;;;4.30;2.50;;;;;;;;;;5129319;28;20451;-72
2023/10/15 14:28:02;;;;;;;3.40;2.40;;;;;;;;;;5121088;28;20620;-73
2023/10/15 14:30:29;;;;;;;4.60;3.40;;;;;;;;;;5122314;28;20457;-73
2023/10/15 14:32:57;;;;;;;4.60;2.80;;;;;;;;;;5133014;28;20452;-74
2023/10/15 14:35:24;;;;;;;4.17;3.43;;;;;;;;;;5131812;28;20807;-73
2023/10/15 14:37:51;;;;;;;5.43;3.07;;;;;;;;;;5126905;27;20452;-73
2023/10/15 14:40:18;;;;;;;4.23;2.13;;;;;;;;;;5128210;27;20456;-74
2023/10/15 14:42:46;;;;;;;3.20;1.90;;;;;;;;;;5118916;27;20453;-74
2023/10/15 14:45:16;;;;;;;6.17;3.03;;;;;;;;;;5128573;27;20471;-74
2023/10/15 14:47:43;;;;;;;8.50;4.40;;;;;;;;;;5137054;27;20535;-74
2023/10/15 14:50:12;;;;;;;3.97;2.23;;;;;;;;;;5128156;27;20460;-74
2023/10/15 14:52:39;;;;;;;4.97;2.57;;;;;;;;;;5128185;27;20857;-74
2023/10/15 14:55:06;;;;;;;3.33;2.47;;;;;;;;;;5136973;27;20459;-74